Time;durP1;ratioP1;P1;durP2;ratioP2;P2;SDS_P1;SDS_P2;PMS_P1;PMS_P2;Temp;Humidity;BMP_temperature;BMP_pressure;BME280_temperature;BME280_humidity;BME280_pressure;Samples;Min_cycle;Max_cycle;Signal;HPM_P1;HPM_P2
2023/01/25 00:00:39;;;;;;;;;;;;;;;;;;;;;
2023/01/25 00:06:32;;;;;;;59.30;30.20;;;;;;;0.92;100.00;102722.96;216732;1299;139464;-86
2023/01/25 00:19:00;;;;;;;58.20;29.80;;;;;;;0.93;100.00;102731.69;216655;1298;139155;-86
2023/01/25 00:24:34;;;;;;;;;;;;;;;;;;;;;
2023/01/25 00:30:35;;;;;;;;;;;;;;;;;;;;;
2023/01/25 00:36:41;;;;;;;54.00;26.70;;;;;;;0.93;100.00;102727.35;216758;1299;139098;-87
2023/01/25 00:42:40;;;;;;;;;;;;;;;;;;;;;
2023/01/25 00:48:43;;;;;;;56.70;27.50;;;;;;;0.95;100.00;102730.68;216651;1299;139407;-87
2023/01/25 00:54:45;;;;;;;51.60;27.20;;;;;;;1.00;100.00;102732.73;216474;1298;139782;-86
2023/01/25 01:00:45;;;;;;;;;;;;;;;;;;;;;
2023/01/25 01:06:47;;;;;;;54.10;27.20;;;;;;;1.01;100.00;102726.02;216822;1298;139269;-87
2023/01/25 01:12:46;;;;;;;;;;;;;;;;;;;;;
2023/01/25 01:18:47;;;;;;;;;;;;;;;;;;;;;
2023/01/25 01:24:49;;;;;;;48.70;24.40;;;;;;;1.03;100.00;102720.93;216705;1299;139877;-87
2023/01/25 01:30:50;;;;;;;57.50;27.60;;;;;;;1.02;100.00;102727.83;216241;1298;139806;-86
2023/01/25 01:36:50;;;;;;;;;;;;;;;;;;;;;
2023/01/25 01:42:53;;;;;;;47.70;23.40;;;;;;;1.06;100.00;102711.41;216336;1299;139310;-86
2023/01/25 01:49:00;;;;;;;51.30;26.10;;;;;;;1.01;100.00;102710.52;216819;1300;139628;-87
2023/01/25 01:55:17;;;;;;;52.50;23.00;;;;;;;1.05;100.00;102704.89;216766;1298;224543;-86
2023/01/25 02:01:18;;;;;;;48.20;24.30;;;;;;;1.06;100.00;102698.89;216187;1299;139907;-86
2023/01/25 02:13:29;;;;;;;52.00;25.30;;;;;;;1.06;100.00;102688.09;216217;1303;139720;-86
2023/01/25 02:19:22;;;;;;;;;;;;;;;;;;;;;
2023/01/25 02:25:31;;;;;;;55.00;24.90;;;;;;;1.04;100.00;102675.78;216695;1300;139215;-86
2023/01/25 02:31:33;;;;;;;51.80;25.40;;;;;;;1.03;100.00;102667.31;216180;1299;139446;-87
2023/01/25 02:43:30;;;;;;;67.30;31.40;;;;;;;1.01;100.00;102668.65;216216;1298;139352;-86
2023/01/25 02:49:23;;;;;;;;;;;;;;;;;;;;;
2023/01/25 03:01:24;;;;;;;;;;;;;;;;;;;;;
2023/01/25 03:07:27;;;;;;;58.00;27.30;;;;;;;1.04;100.00;102636.23;216636;1302;139215;-86
2023/01/25 03:13:28;;;;;;;58.50;28.40;;;;;;;1.04;100.00;102625.08;216124;1298;139839;-86
2023/01/25 03:19:29;;;;;;;64.30;30.30;;;;;;;1.02;100.00;102613.17;216274;1299;139339;-86
2023/01/25 03:25:31;;;;;;;53.50;27.90;;;;;;;1.00;100.00;102611.76;216707;1299;139389;-85
2023/01/25 03:31:35;;;;;;;56.30;28.60;;;;;;;0.99;100.00;102609.52;216123;1298;139955;-86
2023/01/25 03:37:36;;;;;;;55.90;29.10;;;;;;;0.98;100.00;102595.79;216732;1299;139262;-86
2023/01/25 03:49:38;;;;;;;51.40;25.70;;;;;;;0.95;100.00;102586.17;216231;1299;139564;-85
2023/01/25 03:55:39;;;;;;;48.30;23.00;;;;;;;0.93;100.00;102573.95;216688;1298;139753;-85
2023/01/25 04:01:40;;;;;;;42.90;21.00;;;;;;;0.93;100.00;102567.89;216181;1299;140224;-86
2023/01/25 04:07:37;;;;;;;28.00;14.50;;;;;;;0.93;100.00;102560.89;216586;1299;139067;-85
2023/01/25 04:13:39;;;;;;;28.30;14.10;;;;;;;0.91;100.00;102553.40;216178;1299;139485;-86
2023/01/25 04:25:42;;;;;;;31.10;15.30;;;;;;;0.94;100.00;102548.48;216758;1299;139373;-86
2023/01/25 04:31:34;;;;;;;;;;;;;;;;;;;;;
2023/01/25 04:43:45;;;;;;;24.40;12.10;;;;;;;0.87;100.00;102522.57;216199;1298;139178;-86
2023/01/25 04:49:46;;;;;;;26.30;11.70;;;;;;;0.86;100.00;102520.45;216018;1299;139381;-86
2023/01/25 04:55:47;;;;;;;25.10;12.10;;;;;;;0.88;100.00;102512.77;216636;1299;139421;-85
2023/01/25 05:01:48;;;;;;;25.10;13.90;;;;;;;0.90;100.00;102514.23;216141;1297;139435;-87
2023/01/25 05:07:50;;;;;;;21.30;11.00;;;;;;;0.87;100.00;102512.98;216818;1299;139587;-87
2023/01/25 05:13:51;;;;;;;38.30;20.20;;;;;;;0.82;100.00;102509.86;216294;1298;139402;-86
2023/01/25 05:19:52;;;;;;;28.80;14.10;;;;;;;0.81;100.00;102506.48;216100;1299;139273;-87
2023/01/25 05:31:48;;;;;;;25.30;12.70;;;;;;;0.80;100.00;102500.53;216322;1297;140191;-87
2023/01/25 05:37:49;;;;;;;24.40;12.60;;;;;;;0.79;100.00;102497.54;216839;1302;139259;-86
2023/01/25 05:43:54;;;;;;;22.70;11.90;;;;;;;0.75;100.00;102494.20;216163;1298;139144;-86
2023/01/25 05:49:58;;;;;;;20.90;11.10;;;;;;;0.69;100.00;102484.33;216305;1298;139585;-88
2023/01/25 06:02:00;;;;;;;25.80;12.40;;;;;;;0.70;100.00;102494.88;216267;1298;139342;-86
2023/01/25 06:08:01;;;;;;;25.70;12.40;;;;;;;0.70;100.00;102493.48;216598;1298;139127;-87
2023/01/25 06:13:52;;;;;;;;;;;;;;;;;;;;;
2023/01/25 06:19:56;;;;;;;23.80;12.50;;;;;;;0.71;100.00;102491.53;212203;1299;5350016;-87
2023/01/25 06:25:57;;;;;;;26.60;13.40;;;;;;;0.71;100.00;102485.78;216767;1299;139782;-87
2023/01/25 06:32:08;;;;;;;21.60;10.60;;;;;;;0.68;100.00;102488.47;216265;1299;139137;-87
2023/01/25 06:38:09;;;;;;;24.00;11.30;;;;;;;0.66;100.00;102483.69;216749;1299;139193;-88
2023/01/25 06:44:00;;;;;;;20.20;10.10;;;;;;;0.64;100.00;102482.09;216383;1299;139294;-86
2023/01/25 06:50:25;;;;;;;19.30;9.70;;;;;;;0.63;100.00;102486.48;216202;1298;139470;-84
2023/01/25 06:56:10;;;;;;;20.40;10.40;;;;;;;0.63;100.00;102487.25;216569;1299;141119;-84
2023/01/25 07:02:05;;;;;;;24.30;11.90;;;;;;;0.64;100.00;102487.59;216204;1299;140149;-84
2023/01/25 07:08:06;;;;;;;19.30;10.10;;;;;;;0.66;100.00;102478.64;216741;1299;140103;-83
2023/01/25 07:14:07;;;;;;;19.60;10.00;;;;;;;0.64;100.00;102466.11;216169;1298;140233;-84
2023/01/25 07:20:08;;;;;;;40.90;17.60;;;;;;;0.61;100.00;102464.31;216246;1299;139395;-85
2023/01/25 07:26:01;;;;;;;;;;;;;;;;;;;;;
2023/01/25 07:32:01;;;;;;;;;;;;;;;;;;;;;
2023/01/25 07:38:11;;;;;;;25.70;11.70;;;;;;;0.66;100.00;102461.58;216786;1299;139223;-84
2023/01/25 07:44:11;;;;;;;21.90;10.50;;;;;;;0.67;100.00;102450.96;216310;1299;140078;-84
2023/01/25 07:50:12;;;;;;;24.60;13.20;;;;;;;0.69;100.00;102447.51;216119;1298;139671;-84
2023/01/25 07:56:14;;;;;;;26.80;15.00;;;;;;;0.73;100.00;102437.29;216626;1298;139295;-85
2023/01/25 08:02:07;;;;;;;;;;;;;;;;;;;;;
2023/01/25 08:08:16;;;;;;;29.30;15.20;;;;;;;0.80;100.00;102419.59;216540;1297;139218;-84
2023/01/25 08:14:17;;;;;;;;;;;;;;;;;;;;;
2023/01/25 08:20:21;;;;;;;26.40;14.20;;;;;;;0.80;100.00;102420.90;216196;1299;139636;-86
2023/01/25 08:26:21;;;;;;;23.20;10.80;;;;;;;0.81;100.00;102420.46;216789;1299;139011;-84
2023/01/25 08:32:14;;;;;;;;;;;;;;;;;;;;;
2023/01/25 08:38:24;;;;;;;19.60;9.00;;;;;;;0.75;100.00;102398.86;216473;1298;138757;-84
2023/01/25 08:44:22;;;;;;;;;;;;;;;;;;;;;
2023/01/25 08:50:26;;;;;;;17.40;8.30;;;;;;;0.75;100.00;102395.55;216069;1299;139380;-84
2023/01/25 09:02:28;;;;;;;18.20;8.60;;;;;;;0.74;100.00;102376.41;215961;1299;139175;-84
2023/01/25 09:08:30;;;;;;;20.30;9.40;;;;;;;0.74;100.00;102363.67;216681;1299;138748;-85
2023/01/25 09:14:31;;;;;;;19.40;10.00;;;;;;;0.78;100.00;102369.93;216498;1299;139447;-85
2023/01/25 09:20:15;;;;;;;20.30;9.40;;;;;;;0.82;100.00;102368.83;216122;1299;139553;-83
2023/01/25 09:26:03;;;;;;;21.70;10.80;;;;;;;0.80;100.00;102371.09;216694;1299;139120;-84
2023/01/25 09:31:47;;;;;;;22.40;11.00;;;;;;;0.80;100.00;102365.34;216263;1299;139436;-85
2023/01/25 09:37:48;;;;;;;24.00;11.70;;;;;;;0.80;100.00;102362.95;216785;1299;139078;-84
2023/01/25 09:43:56;;;;;;;24.10;10.90;;;;;;;0.83;100.00;102359.22;216268;1299;139088;-83
2023/01/25 09:49:58;;;;;;;;;;;;;;;;;;;;;
2023/01/25 09:55:57;;;;;;;22.70;12.50;;;;;;;0.81;100.00;102345.34;216762;1298;139480;-85
2023/01/25 10:02:05;;;;;;;24.20;11.90;;;;;;;0.81;100.00;102335.47;216103;1299;139857;-84
2023/01/25 10:08:13;;;;;;;24.30;12.40;;;;;;;0.82;100.00;102328.44;216760;1299;139155;-84
2023/01/25 10:14:02;;;;;;;;;;;;;;;;;;;;;
2023/01/25 10:20:32;;;;;;;25.40;12.20;;;;;;;0.91;100.00;102309.65;216289;1298;139466;-83
2023/01/25 10:26:12;;;;;;;;;;;;;;;;;;;;;
2023/01/25 10:32:16;;;;;;;27.20;12.20;;;;;;;0.91;100.00;102302.15;215215;1304;125761;-84
2023/01/25 10:38:21;;;;;;;25.10;13.00;;;;;;;0.91;100.00;102295.98;216771;1298;139252;-83
2023/01/25 10:56:34;;;;;;;25.90;13.10;;;;;;;0.94;100.00;102289.21;216796;1299;140033;-83
2023/01/25 11:02:26;;;;;;;;;;;;;;;;;;;;;
2023/01/25 11:08:30;;;;;;;24.60;13.00;;;;;;;0.94;100.00;102261.98;216550;1298;139207;-84
2023/01/25 11:14:34;;;;;;;36.00;15.70;;;;;;;0.97;100.00;102247.90;216138;1298;139357;-83
2023/01/25 11:20:39;;;;;;;;;;;;;;;;;;;;;
2023/01/25 11:26:41;;;;;;;;;;;;;;;;;;;;;
2023/01/25 11:32:43;;;;;;;28.90;12.20;;;;;;;1.02;100.00;102211.30;216256;1299;138922;-85
2023/01/25 11:38:59;;;;;;;28.10;12.20;;;;;;;1.06;100.00;102208.33;216653;1298;139112;-85
2023/01/25 11:45:19;;;;;;;28.50;14.70;;;;;;;1.06;100.00;102203.73;216401;1297;139257;-83
2023/01/25 11:51:24;;;;;;;;;;;;;;;;;;;;;
2023/01/25 11:57:40;;;;;;;27.30;12.90;;;;;;;1.10;100.00;102182.30;216768;1298;138965;-84
2023/01/25 12:03:54;;;;;;;25.20;12.50;;;;;;;1.12;100.00;102164.73;215723;1299;140095;-84
2023/01/25 12:16:06;;;;;;;24.20;12.80;;;;;;;1.19;100.00;102134.52;216642;1298;138955;-84
2023/01/25 12:22:05;;;;;;;;;;;;;;;;;;;;;
2023/01/25 12:28:22;;;;;;;;;;;;;;;;;;;;;
2023/01/25 12:40:31;;;;;;;27.80;14.70;;;;;;;1.19;100.00;102093.50;216248;1299;139116;-83
2023/01/25 12:46:31;;;;;;;30.60;14.40;;;;;;;1.16;100.00;102080.23;216888;1299;95997;-84
2023/01/25 12:52:35;;;;;;;30.40;16.50;;;;;;;1.16;100.00;102065.59;216074;1299;139321;-84
2023/01/25 12:58:30;;;;;;;;;;;;;;;;;;;;;
2023/01/25 13:04:35;;;;;;;24.90;12.10;;;;;;;1.15;100.00;102050.79;216019;1299;220666;-83
2023/01/25 13:17:04;;;;;;;33.00;16.50;;;;;;;1.21;100.00;102036.08;215491;1305;95922;-83
2023/01/25 13:23:05;;;;;;;31.40;15.50;;;;;;;1.21;100.00;102031.78;214938;1305;139851;-84
2023/01/25 13:29:24;;;;;;;34.40;17.30;;;;;;;1.21;100.00;102022.45;214389;1305;139580;-84
2023/01/25 13:35:29;;;;;;;;;;;;;;;;;;;;;
2023/01/25 13:41:42;;;;;;;37.30;16.60;;;;;;;1.18;100.00;102002.02;214928;1307;139147;-85
2023/01/25 13:47:43;;;;;;;34.50;18.10;;;;;;;1.15;100.00;101990.74;215212;1306;96497;-83
2023/01/25 13:53:38;;;;;;;;;;;;;;;;;;;;;
2023/01/25 13:59:40;;;;;;;39.40;19.20;;;;;;;1.20;100.00;101984.11;215883;1299;138825;-83
2023/01/25 14:11:41;;;;;;;;;;;;;;;;;;;;;
2023/01/25 14:17:44;;;;;;;35.50;17.70;;;;;;;1.17;100.00;101963.25;216241;1299;96228;-84
2023/01/25 14:23:55;;;;;;;;;;;;;;;;;;;;;
2023/01/25 14:30:04;;;;;;;39.90;19.00;;;;;;;1.15;100.00;101934.95;216032;1303;139481;-85
2023/01/25 14:36:05;;;;;;;;;;;;;;;;;;;;;
2023/01/25 14:42:12;;;;;;;39.00;17.80;;;;;;;1.13;100.00;101923.19;216269;1299;139116;-83
2023/01/25 14:48:12;;;;;;;;;;;;;;;;;;;;;
2023/01/25 14:54:21;;;;;;;44.00;20.30;;;;;;;1.10;100.00;101908.83;216326;1299;139274;-82
2023/01/25 15:00:22;;;;;;;35.60;16.20;;;;;;;1.10;100.00;101908.61;216232;1299;140215;-83
2023/01/25 15:06:21;;;;;;;;;;;;;;;;;;;;;
2023/01/25 15:12:25;;;;;;;;;;;;;;;;;;;;;
2023/01/25 15:18:37;;;;;;;46.70;20.40;;;;;;;1.13;100.00;101876.94;216542;1302;96204;-84
2023/01/25 15:24:41;;;;;;;44.30;21.40;;;;;;;1.12;100.00;101875.86;215786;1299;138514;-85
2023/01/25 15:30:42;;;;;;;43.30;20.20;;;;;;;1.14;100.00;101865.27;216114;1299;138850;-84
2023/01/25 15:36:43;;;;;;;48.20;21.10;;;;;;;1.16;100.00;101864.17;216633;1299;96181;-84
2023/01/25 15:42:42;;;;;;;;;;;;;;;;;;;;;
2023/01/25 15:48:46;;;;;;;48.40;22.90;;;;;;;1.18;100.00;101847.52;216635;1299;96106;-84
2023/01/25 15:54:47;;;;;;;52.30;24.50;;;;;;;1.17;100.00;101840.36;216563;1299;97266;-84
2023/01/25 16:00:49;;;;;;;46.90;21.50;;;;;;;1.14;100.00;101840.59;216119;1299;139154;-84
2023/01/25 16:06:56;;;;;;;;;;;;;;;;;;;;;
2023/01/25 16:12:58;;;;;;;;;;;;;;;;;;;;;
2023/01/25 16:19:00;;;;;;;58.40;23.70;;;;;;;1.04;100.00;101820.42;216690;1299;105821;-83
2023/01/25 16:24:59;;;;;;;;;;;;;;;;;;;;;
2023/01/25 16:31:00;;;;;;;;;;;;;;;;;;;;;
2023/01/25 16:37:02;;;;;;;;;;;;;;;;;;;;;
2023/01/25 16:42:56;;;;;;;48.70;20.10;;;;;;;1.00;100.00;101796.33;216073;1299;139084;-84
2023/01/25 16:48:50;;;;;;;46.10;18.20;;;;;;;1.00;100.00;101791.71;216772;1298;138832;-85
2023/01/25 16:54:51;;;;;;;49.20;20.50;;;;;;;1.01;100.00;101791.16;216487;1299;139686;-83
2023/01/25 17:00:44;;;;;;;;;;;;;;;;;;;;;
2023/01/25 17:06:51;;;;;;;;;;;;;;;;;;;;;
2023/01/25 17:12:54;;;;;;;55.70;23.90;;;;;;;1.09;100.00;101781.30;216216;1299;139316;-84
2023/01/25 17:18:49;;;;;;;;;;;;;;;;;;;;;
2023/01/25 17:24:57;;;;;;;55.60;25.70;;;;;;;1.10;100.00;101758.19;216482;1299;139002;-84
2023/01/25 17:30:58;;;;;;;67.40;28.90;;;;;;;1.12;100.00;101748.31;216000;1299;139541;-84
2023/01/25 17:42:44;;;;;;;;;;;;;;;;;;;;;
2023/01/25 17:48:47;;;;;;;64.70;29.50;;;;;;;1.12;100.00;101735.68;216481;1300;139187;-83
2023/01/25 17:54:39;;;;;;;;;;;;;;;;;;;;;
2023/01/25 18:00:47;;;;;;;57.20;25.30;;;;;;;1.10;100.00;101720.20;216197;1298;139395;-83
2023/01/25 18:06:48;;;;;;;62.10;28.10;;;;;;;1.10;100.00;101713.73;216703;1298;139280;-84
2023/01/25 18:12:41;;;;;;;;;;;;;;;;;;;;;
2023/01/25 18:18:40;;;;;;;56.70;24.20;;;;;;;1.13;100.00;101708.67;212845;1299;5357104;-83
2023/01/25 18:24:44;;;;;;;68.00;27.30;;;;;;;1.14;100.00;101707.02;216600;1299;139315;-84
2023/01/25 18:43:04;;;;;;;77.20;30.40;;;;;;;1.16;100.00;101678.49;216104;1302;139063;-84
2023/01/25 18:48:57;;;;;;;;;;;;;;;;;;;;;
2023/01/25 18:54:48;;;;;;;55.60;23.60;;;;;;;1.16;100.00;101656.09;216651;1298;138846;-85
2023/01/25 19:00:48;;;;;;;;;;;;;;;;;;;;;
2023/01/25 19:06:52;;;;;;;;;;;;;;;;;;;;;
2023/01/25 19:12:36;;;;;;;;;;;;;;;;;;;;;
2023/01/25 19:18:39;;;;;;;54.60;22.30;;;;;;;1.16;100.00;101630.11;216735;1299;139401;-84
2023/01/25 19:24:40;;;;;;;54.60;23.30;;;;;;;1.18;100.00;101626.04;216496;1299;140095;-84
2023/01/25 19:30:41;;;;;;;60.40;23.50;;;;;;;1.18;100.00;101621.15;216006;1298;141078;-84
2023/01/25 19:36:34;;;;;;;;;;;;;;;;;;;;;
2023/01/25 19:42:26;;;;;;;;;;;;;;;;;;;;;
2023/01/25 19:48:19;;;;;;;;;;;;;;;;;;;;;
2023/01/25 19:54:11;;;;;;;68.20;26.90;;;;;;;1.25;100.00;101613.77;216313;1298;139004;-84
2023/01/25 20:00:12;;;;;;;69.20;28.60;;;;;;;1.27;100.00;101602.40;216357;1299;139604;-85
2023/01/25 20:06:05;;;;;;;;;;;;;;;;;;;;;
2023/01/25 20:12:25;;;;;;;72.50;28.20;;;;;;;1.27;100.00;101589.49;216097;1298;139467;-84
2023/01/25 20:18:02;;;;;;;79.10;28.40;;;;;;;1.26;100.00;101582.72;216308;1299;140349;-84
2023/01/25 20:24:04;;;;;;;71.50;25.30;;;;;;;1.26;100.00;101577.26;216002;1299;138939;-85
2023/01/25 20:30:02;;;;;;;;;;;;;;;;;;;;;
2023/01/25 20:36:05;;;;;;;73.10;29.00;;;;;;;1.25;100.00;101566.41;216599;1298;139073;-85
2023/01/25 20:41:52;;;;;;;77.50;29.20;;;;;;;1.25;100.00;101556.54;215933;1298;138948;-84
2023/01/25 20:47:45;;;;;;;;;;;;;;;;;;;;;
2023/01/25 20:53:46;;;;;;;;;;;;;;;;;;;;;
2023/01/25 20:59:28;;;;;;;75.70;27.60;;;;;;;1.26;100.00;101524.38;215410;1298;140300;-84
2023/01/25 21:05:30;;;;;;;74.20;26.90;;;;;;;1.24;100.00;101528.30;216733;1299;139123;-84
2023/01/25 21:11:22;;;;;;;73.10;25.90;;;;;;;1.25;100.00;101520.27;216176;1299;139305;-84
2023/01/25 21:17:31;;;;;;;;;;;;;;;;;;;;;
2023/01/25 21:23:33;;;;;;;72.30;26.60;;;;;;;1.23;100.00;101509.07;215794;1299;139174;-85
2023/01/25 21:29:34;;;;;;;63.30;23.80;;;;;;;1.22;100.00;101505.45;216117;1299;140181;-85
2023/01/25 21:35:27;;;;;;;;;;;;;;;;;;;;;
2023/01/25 21:41:42;;;;;;;84.20;27.30;;;;;;;1.22;100.00;101489.50;215900;1298;139871;-85
2023/01/25 21:53:40;;;;;;;;;;;;;;;;;;;;;
2023/01/25 21:59:35;;;;;;;;;;;;;;;;;;;;;
2023/01/25 22:05:32;;;;;;;;;;;;;;;;;;;;;
2023/01/25 22:11:41;;;;;;;77.30;28.70;;;;;;;1.22;100.00;101459.79;216155;1299;139448;-85
2023/01/25 22:17:42;;;;;;;91.80;29.70;;;;;;;1.24;100.00;101466.14;216669;1299;139386;-85
2023/01/25 22:23:41;;;;;;;;;;;;;;;;;;;;;
2023/01/25 22:29:40;;;;;;;;;;;;;;;;;;;;;
2023/01/25 22:35:49;;;;;;;96.20;34.60;;;;;;;1.30;100.00;101455.77;216778;1298;139304;-84
2023/01/25 22:41:50;;;;;;;94.00;34.30;;;;;;;1.30;100.00;101458.44;216141;1299;139193;-84
2023/01/25 22:47:43;;;;;;;;;;;;;;;;;;;;;
2023/01/25 22:53:34;;;;;;;;;;;;;;;;;;;;;
2023/01/25 22:59:28;;;;;;;;;;;;;;;;;;;;;
2023/01/25 23:05:37;;;;;;;91.50;31.10;;;;;;;1.31;100.00;101435.70;216828;1298;139516;-84
2023/01/25 23:23:38;;;;;;;104.70;33.30;;;;;;;1.36;100.00;101409.59;216298;1299;139200;-84
2023/01/25 23:29:38;;;;;;;;;;;;;;;;;;;;;
2023/01/25 23:35:30;;;;;;;;;;;;;;;;;;;;;
2023/01/25 23:41:29;;;;;;;104.30;34.40;;;;;;;1.34;100.00;101392.91;216031;1299;139590;-85
2023/01/25 23:47:29;;;;;;;106.00;37.10;;;;;;;1.37;100.00;101389.98;216720;1298;139826;-85
2023/01/25 23:59:31;;;;;;;110.10;37.70;;;;;;;1.39;100.00;101372.44;216078;1299;139257;-88
